Time;durP1;ratioP1;P1;durP2;ratioP2;P2;SDS_P1;SDS_P2;PMS_P1;PMS_P2;Temp;Humidity;BMP_temperature;BMP_pressure;BME280_temperature;BME280_humidity;BME280_pressure;Samples;Min_cycle;Max_cycle;Signal;HPM_P1;HPM_P2
2024/02/07 00:02:16;;;;;;;5.70;3.97;;;9.20;1.00;;;;;;5108975;27;20464;-76
2024/02/07 00:04:43;;;;;;;8.07;4.70;;;9.20;1.00;;;;;;5108816;27;20541;-76
2024/02/07 00:07:09;;;;;;;6.70;4.70;;;9.20;1.00;;;;;;5109073;27;20453;-76
2024/02/07 00:09:36;;;;;;;10.57;4.80;;;9.10;1.00;;;;;;5108364;27;20550;-75
2024/02/07 00:12:04;;;;;;;8.07;5.53;;;9.10;1.00;;;;;;5109276;27;20855;-75
2024/02/07 00:14:31;;;;;;;6.30;4.40;;;9.10;1.00;;;;;;5108659;27;20593;-76
2024/02/07 00:16:59;;;;;;;6.33;4.73;;;9.00;1.00;;;;;;5107726;27;20462;-75
2024/02/07 00:19:26;;;;;;;12.50;5.50;;;9.00;1.00;;;;;;5109863;27;20476;-75
2024/02/07 00:21:56;;;;;;;5.90;5.30;;;9.00;1.00;;;;;;5110768;27;20538;-76
2024/02/07 00:24:23;;;;;;;7.73;5.20;;;9.00;1.00;;;;;;5109873;27;20539;-75
2024/02/07 00:26:50;;;;;;;7.97;5.37;;;9.00;1.00;;;;;;5109573;27;20458;-75
2024/02/07 00:29:16;;;;;;;7.90;5.20;;;8.90;1.00;;;;;;5108118;27;20508;-75
2024/02/07 00:31:43;;;;;;;5.70;4.80;;;8.90;1.00;;;;;;5107636;27;20510;-75
2024/02/07 00:34:12;;;;;;;6.90;5.33;;;8.90;1.00;;;;;;5109400;27;20507;-75
2024/02/07 00:36:39;;;;;;;5.10;4.60;;;8.90;1.00;;;;;;5109549;27;20450;-75
2024/02/07 00:39:06;;;;;;;7.00;4.77;;;8.90;1.00;;;;;;5111630;27;20551;-76
2024/02/07 00:41:33;;;;;;;7.33;4.67;;;8.90;1.00;;;;;;5107372;27;20457;-76
2024/02/07 00:44:00;;;;;;;7.30;5.33;;;8.90;1.00;;;;;;5108644;27;20525;-76
2024/02/07 00:46:27;;;;;;;7.00;5.00;;;8.90;1.00;;;;;;5108433;27;20438;-76
2024/02/07 00:48:55;;;;;;;7.50;5.30;;;8.90;1.00;;;;;;5108723;27;20457;-77
2024/02/07 00:51:23;;;;;;;7.93;5.40;;;8.90;1.00;;;;;;5107021;27;20444;-76
2024/02/07 00:53:50;;;;;;;8.07;5.63;;;8.90;1.00;;;;;;5108351;27;20538;-78
2024/02/07 00:56:17;;;;;;;8.37;6.10;;;8.90;1.00;;;;;;5109519;27;20507;-75
2024/02/07 00:58:44;;;;;;;6.27;5.30;;;8.90;1.00;;;;;;5110244;27;21091;-78
2024/02/07 01:01:12;;;;;;;5.17;4.67;;;8.90;1.00;;;;;;5110997;27;20453;-77
2024/02/07 01:03:38;;;;;;;8.13;5.27;;;8.90;1.00;;;;;;5106844;27;20544;-76
2024/02/07 01:06:06;;;;;;;5.53;4.90;;;8.90;1.00;;;;;;5107349;27;21019;-78
2024/02/07 01:08:35;;;;;;;7.23;5.50;;;8.90;1.00;;;;;;5108830;27;20572;-76
2024/02/07 01:11:02;;;;;;;15.23;13.93;;;8.90;1.00;;;;;;5109359;27;20450;-76
2024/02/07 01:13:29;;;;;;;46.50;42.00;;;8.90;1.00;;;;;;5106514;27;20458;-76
2024/02/07 01:15:56;;;;;;;10.20;6.17;;;9.00;1.00;;;;;;5109542;27;21042;-77
2024/02/07 01:18:23;;;;;;;8.00;5.53;;;8.90;1.00;;;;;;5104763;27;20549;-77
2024/02/07 01:20:50;;;;;;;5.83;4.90;;;9.00;1.00;;;;;;5100738;27;20457;-78
2024/02/07 01:23:17;;;;;;;2.87;2.27;;;9.00;1.00;;;;;;5109504;27;20462;-77
2024/02/07 01:25:45;;;;;;;2.90;1.87;;;9.00;1.00;;;;;;5109551;27;20480;-75
2024/02/07 01:28:12;;;;;;;2.30;1.50;;;8.70;1.00;;;;;;5107122;27;20469;-77
2024/02/07 01:30:39;;;;;;;4.67;0.73;;;8.60;1.00;;;;;;5105931;27;20450;-76
2024/02/07 01:33:07;;;;;;;1.60;0.93;;;8.40;1.00;;;;;;5107294;27;20468;-75
2024/02/07 01:35:34;;;;;;;2.13;0.70;;;8.20;1.00;;;;;;5106290;27;20518;-77
2024/02/07 01:38:07;;;;;;;1.25;0.80;;;8.20;1.00;;;;;;5106630;27;20479;-76
2024/02/07 01:40:42;;;;;;;1.20;0.75;;;8.10;1.00;;;;;;5104456;27;20327;-75
2024/02/07 01:43:11;;;;;;;0.70;0.50;;;8.00;1.00;;;;;;5108532;27;20245;-74
2024/02/07 01:45:38;;;;;;;0.90;0.50;;;7.90;1.00;;;;;;5104675;27;20470;-77
2024/02/07 01:48:07;;;;;;;1.50;0.70;;;7.90;1.00;;;;;;5103791;27;20550;-76
2024/02/07 01:50:36;;;;;;;0.82;0.50;;;7.70;1.00;;;;;;5106267;27;20459;-78
2024/02/07 01:53:04;;;;;;;0.68;0.40;;;7.60;1.00;;;;;;5106560;27;20241;-77
2024/02/07 01:55:32;;;;;;;2.40;0.50;;;7.50;1.00;;;;;;5107790;27;20336;-76
2024/02/07 01:58:00;;;;;;;1.60;0.65;;;7.40;1.00;;;;;;5108359;27;20834;-76
2024/02/07 02:00:30;;;;;;;1.77;0.60;;;7.30;1.00;;;;;;5107955;27;20254;-76
2024/02/07 02:02:58;;;;;;;0.80;0.50;;;7.20;1.00;;;;;;5104465;27;20237;-77
2024/02/07 02:05:24;;;;;;;1.40;0.50;;;7.20;1.00;;;;;;5106240;27;20720;-77
2024/02/07 02:07:53;;;;;;;2.00;0.70;;;7.00;1.00;;;;;;5104990;27;20316;-77
2024/02/07 02:10:20;;;;;;;0.80;0.40;;;6.90;1.00;;;;;;5105843;27;20290;-70
2024/02/07 02:12:47;;;;;;;0.93;0.50;;;6.80;1.00;;;;;;5105781;27;20255;-70
2024/02/07 02:15:14;;;;;;;1.23;0.55;;;6.70;1.00;;;;;;5106307;27;20328;-71
2024/02/07 02:17:42;;;;;;;1.45;0.45;;;6.60;1.00;;;;;;5104170;27;20290;-70
2024/02/07 02:20:11;;;;;;;0.95;0.38;;;6.60;1.00;;;;;;5103626;27;20252;-71
2024/02/07 02:22:55;;;;;;;0.82;0.47;;;6.50;1.00;;;;;;5107504;27;20236;-73
2024/02/07 02:25:51;;;;;;;1.30;0.50;;;6.40;1.00;;;;;;5107378;27;20730;-70
2024/02/07 02:28:35;;;;;;;1.83;0.60;;;6.30;1.00;;;;;;5104613;27;20723;-69
2024/02/07 02:31:07;;;;;;;1.73;0.57;;;6.30;1.00;;;;;;5108827;27;20235;-70
2024/02/07 02:33:36;;;;;;;1.60;0.70;;;6.30;1.00;;;;;;5110049;27;20244;-70
2024/02/07 02:36:05;;;;;;;1.70;0.80;;;6.20;1.00;;;;;;5110979;27;20232;-69
2024/02/07 02:38:36;;;;;;;1.73;0.75;;;6.30;1.00;;;;;;5106516;27;20263;-69
2024/02/07 02:41:07;;;;;;;0.85;0.50;;;6.20;1.00;;;;;;5111075;27;21187;-68
2024/02/07 02:43:34;;;;;;;1.08;0.50;;;6.20;1.00;;;;;;5107830;27;20294;-69
2024/02/07 02:46:03;;;;;;;2.55;0.50;;;6.20;1.00;;;;;;5109594;27;20889;-75
2024/02/07 02:48:31;;;;;;;1.10;0.70;;;6.10;1.00;;;;;;5112361;27;20367;-72
2024/02/07 02:50:59;;;;;;;1.77;0.50;;;6.10;1.00;;;;;;5106625;27;20360;-70
2024/02/07 02:53:26;;;;;;;1.30;0.70;;;6.10;1.00;;;;;;5110852;27;20251;-71
2024/02/07 02:55:53;;;;;;;2.25;0.68;;;6.10;1.00;;;;;;5113576;27;20711;-71
2024/02/07 02:58:20;;;;;;;0.80;0.43;;;6.10;1.00;;;;;;5110882;27;20268;-71
2024/02/07 03:00:50;;;;;;;1.55;0.68;;;6.10;1.00;;;;;;5092430;28;21026;-69
2024/02/07 03:03:17;;;;;;;1.35;0.63;;;6.00;1.00;;;;;;5109658;27;20707;-71
2024/02/07 03:05:58;;;;;;;0.52;0.30;;;6.10;1.00;;;;;;5111195;27;20712;-70
2024/02/07 03:08:29;;;;;;;0.70;0.45;;;6.00;1.00;;;;;;5106876;27;20406;-70
2024/02/07 03:10:56;;;;;;;2.47;0.60;;;5.90;1.00;;;;;;5111208;27;20254;-70
2024/02/07 03:13:24;;;;;;;0.60;0.40;;;5.90;1.00;;;;;;5109355;27;21066;-70
2024/02/07 03:15:52;;;;;;;1.17;0.60;;;5.80;1.00;;;;;;5110053;27;20945;-69
2024/02/07 03:18:20;;;;;;;3.53;0.88;;;5.80;1.00;;;;;;5110710;27;20250;-70
2024/02/07 03:20:50;;;;;;;2.00;0.60;;;5.80;1.00;;;;;;5105712;27;20238;-70
2024/02/07 03:23:17;;;;;;;1.23;0.40;;;5.70;1.00;;;;;;5109082;27;20242;-69
2024/02/07 03:25:44;;;;;;;0.90;0.40;;;5.70;1.00;;;;;;5108097;27;20232;-69
2024/02/07 03:28:14;;;;;;;0.93;0.30;;;5.70;1.00;;;;;;5111175;27;20301;-69
2024/02/07 03:30:42;;;;;;;3.45;0.60;;;5.60;1.00;;;;;;5111362;27;20243;-69
2024/02/07 03:33:12;;;;;;;0.95;0.55;;;5.60;1.00;;;;;;5112971;27;20243;-70
2024/02/07 03:35:39;;;;;;;0.75;0.50;;;5.60;1.00;;;;;;5110224;27;20373;-70
2024/02/07 03:38:08;;;;;;;1.70;0.60;;;5.50;1.00;;;;;;5111864;27;20239;-69
2024/02/07 03:40:35;;;;;;;2.25;0.40;;;5.50;1.00;;;;;;5111242;27;20267;-70
2024/02/07 03:43:03;;;;;;;2.40;0.68;;;5.40;1.00;;;;;;5109540;27;20227;-70
2024/02/07 03:45:32;;;;;;;1.95;0.50;;;5.40;1.00;;;;;;5110284;27;20242;-73
2024/02/07 03:47:59;;;;;;;0.70;0.30;;;5.30;1.00;;;;;;5113620;27;20678;-70
2024/02/07 03:50:27;;;;;;;0.70;0.40;;;5.30;1.00;;;;;;5109842;27;20262;-71
2024/02/07 03:52:56;;;;;;;3.22;0.80;;;5.30;1.00;;;;;;5108842;27;20327;-70
2024/02/07 03:55:24;;;;;;;3.72;0.63;;;5.20;1.00;;;;;;5108226;27;20332;-70
2024/02/07 03:57:51;;;;;;;0.90;0.50;;;5.10;1.00;;;;;;5109512;27;20335;-71
2024/02/07 04:00:18;;;;;;;1.98;0.57;;;4.90;1.00;;;;;;5111858;27;20266;-71
2024/02/07 04:02:47;;;;;;;1.33;0.40;;;4.80;1.00;;;;;;5109935;27;20236;-71
2024/02/07 04:05:16;;;;;;;4.05;0.90;;;4.80;1.00;;;;;;5107401;27;20317;-71
2024/02/07 04:07:43;;;;;;;1.63;0.82;;;4.70;1.00;;;;;;5110195;27;20712;-70
2024/02/07 04:10:11;;;;;;;4.25;3.10;;;4.70;1.00;;;;;;5109693;27;20331;-70
2024/02/07 05:15:52;;;;;;;2.28;0.85;;;4.20;1.00;;;;;;5110820;27;20254;-76
2024/02/07 05:18:22;;;;;;;5.63;1.02;;;4.20;1.00;;;;;;5109208;27;20235;-76
2024/02/07 05:20:49;;;;;;;2.00;0.80;;;4.20;1.00;;;;;;5107039;27;20245;-76
2024/02/07 05:23:17;;;;;;;1.65;1.08;;;4.20;1.00;;;;;;5110013;27;20349;-76
2024/02/07 05:25:45;;;;;;;1.58;0.90;;;4.20;1.00;;;;;;5106320;27;20250;-76
2024/02/07 05:28:13;;;;;;;4.25;2.38;;;4.10;1.00;;;;;;5111595;27;20311;-77
2024/02/07 05:30:40;;;;;;;1.25;0.73;;;4.10;1.00;;;;;;5109679;27;20243;-75
2024/02/07 05:33:07;;;;;;;4.60;1.48;;;4.10;1.00;;;;;;5111277;27;20245;-77
2024/02/07 05:35:35;;;;;;;2.50;0.90;;;4.10;1.00;;;;;;5108677;27;20338;-75
2024/02/07 05:38:03;;;;;;;2.85;0.90;;;4.10;1.00;;;;;;5099531;27;20282;-77
2024/02/07 05:40:30;;;;;;;2.65;0.80;;;4.10;1.00;;;;;;5108204;27;20334;-76
2024/02/07 05:42:57;;;;;;;2.35;1.05;;;4.10;1.00;;;;;;5112439;27;20257;-78
2024/02/07 05:45:24;;;;;;;1.92;0.75;;;4.10;1.00;;;;;;5106668;27;20293;-75
2024/02/07 05:47:51;;;;;;;3.65;0.90;;;4.10;1.00;;;;;;5111275;27;20779;-77
2024/02/07 05:50:18;;;;;;;4.28;1.35;;;4.00;1.00;;;;;;5109873;27;20239;-75
2024/02/07 05:52:46;;;;;;;2.47;1.00;;;4.00;1.00;;;;;;5111422;27;20330;-76
2024/02/07 05:55:13;;;;;;;3.47;1.00;;;4.00;1.00;;;;;;5110771;27;20263;-75
2024/02/07 05:57:40;;;;;;;2.08;1.20;;;4.00;1.00;;;;;;5107481;27;20257;-77
2024/02/07 06:00:09;;;;;;;3.03;0.85;;;4.00;1.00;;;;;;5110162;27;20942;-77
2024/02/07 06:02:36;;;;;;;3.15;0.90;;;4.00;1.00;;;;;;5107720;27;21441;-75
2024/02/07 06:05:03;;;;;;;3.33;1.23;;;4.00;1.00;;;;;;5109378;27;21664;-76
2024/02/07 06:07:30;;;;;;;4.00;1.30;;;4.00;1.00;;;;;;5114176;27;20231;-77
2024/02/07 06:09:58;;;;;;;2.47;1.50;;;4.00;1.00;;;;;;5104962;27;20232;-76
2024/02/07 06:12:26;;;;;;;2.13;0.90;;;4.00;1.00;;;;;;5088825;27;20232;-76
2024/02/07 06:14:53;;;;;;;3.72;1.40;;;4.00;1.00;;;;;;5092577;28;20326;-75
2024/02/07 06:17:19;;;;;;;3.70;1.45;;;4.10;1.00;;;;;;5087840;28;20326;-75
2024/02/07 06:19:46;;;;;;;1.88;1.00;;;4.10;1.00;;;;;;5093431;28;20315;-76
2024/02/07 06:22:13;;;;;;;5.72;1.70;;;4.10;1.00;;;;;;5092440;28;21412;-75
2024/02/07 06:24:40;;;;;;;3.92;1.20;;;4.10;1.00;;;;;;5093212;28;20262;-75
2024/02/07 06:27:09;;;;;;;3.78;1.52;;;4.20;1.00;;;;;;5092595;27;20264;-77
2024/02/07 06:29:35;;;;;;;2.35;1.30;;;4.20;1.00;;;;;;5093468;28;20237;-75
2024/02/07 06:32:02;;;;;;;3.20;1.48;;;4.20;1.00;;;;;;5094366;27;20323;-77
2024/02/07 06:34:31;;;;;;;2.85;1.80;;;4.20;1.00;;;;;;5094676;27;20987;-75
2024/02/07 06:37:00;;;;;;;2.95;1.15;;;4.20;1.00;;;;;;5094469;27;20238;-77
2024/02/07 06:39:27;;;;;;;5.20;1.85;;;4.20;1.00;;;;;;5092905;28;20329;-74
2024/02/07 06:41:54;;;;;;;2.53;1.35;;;4.20;1.00;;;;;;5090453;28;20259;-75
2024/02/07 06:44:22;;;;;;;5.07;2.33;;;4.20;1.00;;;;;;5090500;28;20328;-75
2024/02/07 06:46:49;;;;;;;5.82;1.80;;;4.20;1.00;;;;;;5091174;28;20236;-75
2024/02/07 06:49:16;;;;;;;5.57;1.80;;;4.20;1.00;;;;;;5094263;28;20236;-75
2024/02/07 06:51:43;;;;;;;2.45;1.38;;;4.20;1.00;;;;;;5090607;28;20335;-70
2024/02/07 06:54:11;;;;;;;6.15;2.10;;;4.20;1.00;;;;;;5094008;28;20323;-69
2024/02/07 06:56:38;;;;;;;3.42;1.55;;;4.30;1.00;;;;;;5093636;28;20267;-69
2024/02/07 06:59:06;;;;;;;6.10;1.70;;;4.30;1.00;;;;;;5096002;28;20319;-72
2024/02/07 07:01:34;;;;;;;5.38;1.90;;;4.40;1.00;;;;;;5089953;28;20445;-70
2024/02/07 07:04:02;;;;;;;8.27;2.25;;;4.40;1.00;;;;;;5095886;28;20236;-71
2024/02/07 07:06:29;;;;;;;5.13;1.50;;;4.40;1.00;;;;;;5093051;27;20424;-70
2024/02/07 07:08:56;;;;;;;5.20;2.03;;;4.40;1.00;;;;;;5081072;28;20323;-72
2024/02/07 07:11:23;;;;;;;2.92;1.80;;;4.40;1.00;;;;;;5103795;27;20274;-73
2024/02/07 07:13:49;;;;;;;5.60;2.00;;;4.40;1.00;;;;;;5107914;27;20289;-72
2024/02/07 07:16:16;;;;;;;4.93;2.17;;;4.40;1.00;;;;;;5109100;27;20334;-71
2024/02/07 07:18:45;;;;;;;5.80;1.60;;;4.40;1.00;;;;;;5108139;27;20239;-71
2024/02/07 07:21:12;;;;;;;4.10;1.83;;;4.40;1.00;;;;;;5110036;27;20293;-70
2024/02/07 07:23:39;;;;;;;4.07;1.85;;;4.40;1.00;;;;;;5109145;27;20321;-71
2024/02/07 07:26:05;;;;;;;4.60;2.15;;;4.40;1.00;;;;;;5107789;27;20246;-71
2024/02/07 07:28:32;;;;;;;7.75;2.10;;;4.40;1.00;;;;;;5108981;27;20247;-74
2024/02/07 07:30:59;;;;;;;5.82;1.95;;;4.40;1.00;;;;;;5107342;27;20321;-71
2024/02/07 07:33:26;;;;;;;8.68;2.85;;;4.40;1.00;;;;;;5107068;27;20795;-72
2024/02/07 07:35:54;;;;;;;4.10;2.40;;;4.40;1.00;;;;;;5110639;27;20324;-73
2024/02/07 07:38:21;;;;;;;3.28;1.50;;;4.50;1.00;;;;;;5109373;27;20313;-70
2024/02/07 07:40:49;;;;;;;10.95;2.28;;;4.50;1.00;;;;;;5111282;27;20667;-71
2024/02/07 07:43:15;;;;;;;6.60;2.53;;;4.50;1.00;;;;;;5107647;27;20317;-71
2024/02/07 07:45:42;;;;;;;5.82;2.75;;;4.50;1.00;;;;;;5109069;27;20501;-70
2024/02/07 07:48:09;;;;;;;3.15;1.88;;;4.50;1.00;;;;;;5109907;27;20664;-70
2024/02/07 07:50:36;;;;;;;8.25;3.95;;;4.60;1.00;;;;;;5108186;28;20284;-70
2024/02/07 07:53:04;;;;;;;4.88;2.30;;;4.60;1.00;;;;;;5108952;27;20319;-69
2024/02/07 07:55:31;;;;;;;3.45;1.90;;;4.60;1.00;;;;;;5106529;28;20772;-69
2024/02/07 07:57:58;;;;;;;4.40;2.15;;;4.60;1.00;;;;;;5107162;27;20296;-71
2024/02/07 08:00:25;;;;;;;4.40;2.30;;;4.60;1.00;;;;;;5105785;27;20962;-70
2024/02/07 08:02:52;;;;;;;6.28;1.80;;;4.70;1.00;;;;;;5111012;27;20706;-70
2024/02/07 08:05:19;;;;;;;12.13;2.70;;;4.70;1.00;;;;;;5111302;27;20235;-69
2024/02/07 08:07:46;;;;;;;9.90;3.47;;;4.60;1.00;;;;;;5108789;27;20259;-71
2024/02/07 08:10:14;;;;;;;6.55;2.20;;;4.70;1.00;;;;;;5112178;27;20235;-71
2024/02/07 08:12:44;;;;;;;4.82;2.95;;;4.70;1.00;;;;;;5109844;27;20306;-71
2024/02/07 08:15:11;;;;;;;5.90;2.40;;;4.70;1.00;;;;;;5112247;27;20250;-68
2024/02/07 08:17:38;;;;;;;11.43;2.80;;;4.80;1.00;;;;;;5106495;27;20324;-71
2024/02/07 08:20:05;;;;;;;13.82;4.18;;;4.80;1.00;;;;;;5112348;27;20809;-69
2024/02/07 08:22:32;;;;;;;4.72;2.70;;;4.80;1.00;;;;;;5104652;27;20243;-74
2024/02/07 08:24:59;;;;;;;6.22;2.55;;;4.80;1.00;;;;;;5108332;27;20236;-73
2024/02/07 08:27:28;;;;;;;8.05;2.55;;;4.90;1.00;;;;;;5104561;27;20232;-72
2024/02/07 08:29:55;;;;;;;10.10;3.22;;;4.90;1.00;;;;;;5105615;27;20315;-71
2024/02/07 08:32:22;;;;;;;6.95;3.97;;;4.90;1.00;;;;;;5107309;27;20263;-70
2024/02/07 08:34:49;;;;;;;9.15;3.80;;;4.90;1.00;;;;;;5106752;27;21096;-70
2024/02/07 08:37:16;;;;;;;7.30;2.83;;;4.90;1.00;;;;;;5108001;27;20382;-71
2024/02/07 08:39:42;;;;;;;5.57;2.78;;;5.00;1.00;;;;;;5108573;27;20231;-71
2024/02/07 08:42:10;;;;;;;9.43;3.03;;;5.00;1.00;;;;;;5104278;27;20239;-70
2024/02/07 08:44:38;;;;;;;5.75;2.70;;;5.00;1.00;;;;;;5103970;27;20258;-71
2024/02/07 08:47:06;;;;;;;5.55;2.70;;;5.10;1.00;;;;;;5103344;27;20247;-70
2024/02/07 08:49:33;;;;;;;5.90;2.80;;;5.10;1.00;;;;;;5103984;27;20310;-73
2024/02/07 08:51:59;;;;;;;9.32;2.63;;;5.20;1.00;;;;;;5108812;27;20305;-70
2024/02/07 08:54:26;;;;;;;8.32;2.50;;;5.30;1.00;;;;;;5107733;27;20803;-70
2024/02/07 08:56:53;;;;;;;3.85;2.40;;;5.30;1.00;;;;;;5108143;27;20274;-69
2024/02/07 08:59:20;;;;;;;10.75;3.28;;;5.40;1.00;;;;;;5109145;27;20263;-70
2024/02/07 09:01:48;;;;;;;6.82;2.50;;;5.40;1.00;;;;;;5107288;27;20711;-75
2024/02/07 09:04:15;;;;;;;8.20;2.85;;;5.40;1.00;;;;;;5107712;27;20236;-76
2024/02/07 09:06:44;;;;;;;12.10;2.88;;;5.40;1.00;;;;;;5107943;27;20281;-77
2024/02/07 09:09:11;;;;;;;9.38;3.10;;;5.40;1.00;;;;;;5106683;27;20290;-75
2024/02/07 09:11:37;;;;;;;4.78;2.63;;;5.40;1.00;;;;;;5107416;27;20342;-76
2024/02/07 09:14:04;;;;;;;7.32;2.67;;;5.40;1.00;;;;;;5110511;27;20238;-74
2024/02/07 09:16:31;;;;;;;8.13;2.30;;;5.50;1.00;;;;;;5109429;27;21016;-75
2024/02/07 09:19:00;;;;;;;4.97;2.13;;;5.50;1.00;;;;;;5110536;27;20263;-76
2024/02/07 09:21:27;;;;;;;8.27;3.00;;;5.60;1.00;;;;;;5105244;27;20258;-76
2024/02/07 09:23:56;;;;;;;7.25;3.30;;;5.60;1.00;;;;;;5108408;27;20228;-76
2024/02/07 09:26:23;;;;;;;8.73;2.42;;;5.60;1.00;;;;;;5106672;27;21152;-77
2024/02/07 09:28:49;;;;;;;12.63;3.53;;;5.70;1.00;;;;;;5106040;27;20279;-75
2024/02/07 09:31:17;;;;;;;9.38;3.38;;;5.70;1.00;;;;;;5105888;27;20431;-75
2024/02/07 09:33:44;;;;;;;7.57;3.13;;;5.80;1.00;;;;;;5108577;27;20298;-74
2024/02/07 09:36:12;;;;;;;5.13;2.35;;;5.90;1.00;;;;;;5110955;27;20263;-75
2024/02/07 09:38:39;;;;;;;10.02;2.65;;;5.90;1.00;;;;;;5109624;27;20243;-72
2024/02/07 09:41:08;;;;;;;5.95;2.47;;;6.00;1.00;;;;;;5110859;27;20263;-73
2024/02/07 09:43:36;;;;;;;7.55;2.25;;;6.10;1.00;;;;;;5112782;27;20312;-72
2024/02/07 09:46:05;;;;;;;9.75;2.80;;;6.30;1.00;;;;;;5108403;28;20292;-75
2024/02/07 09:48:32;;;;;;;5.75;2.40;;;6.60;1.00;;;;;;5109727;27;20254;-75
2024/02/07 09:50:59;;;;;;;5.82;2.22;;;6.70;1.00;;;;;;5111437;27;20714;-75
2024/02/07 09:53:28;;;;;;;8.07;3.55;;;6.80;1.00;;;;;;5093362;27;20512;-77
2024/02/07 09:55:55;;;;;;;15.10;2.70;;;6.90;1.00;;;;;;5112995;27;20313;-76
2024/02/07 09:58:23;;;;;;;6.03;2.65;;;7.10;1.00;;;;;;5109465;27;20995;-77
2024/02/07 10:00:52;;;;;;;7.10;2.85;;;7.20;1.00;;;;;;5110722;27;20232;-75
2024/02/07 10:03:24;;;;;;;7.68;3.00;;;7.30;1.00;;;;;;5111429;27;20239;-76
2024/02/07 10:05:53;;;;;;;10.27;2.55;;;7.40;1.00;;;;;;5110864;27;20233;-76
2024/02/07 10:08:20;;;;;;;5.47;2.13;;;7.50;1.00;;;;;;5109069;27;20229;-75
2024/02/07 10:10:49;;;;;;;5.37;2.77;;;7.50;1.00;;;;;;5107219;27;20318;-74
2024/02/07 10:13:17;;;;;;;7.35;2.78;;;7.50;1.00;;;;;;5110464;27;20461;-76
2024/02/07 10:15:45;;;;;;;4.60;2.50;;;7.40;1.00;;;;;;5107918;27;21566;-76
2024/02/07 10:18:12;;;;;;;7.53;2.47;;;7.40;1.00;;;;;;5107820;27;20643;-76
2024/02/07 10:20:39;;;;;;;6.20;2.30;;;7.40;1.00;;;;;;5099275;27;20249;-76
2024/02/07 10:23:08;;;;;;;7.28;2.20;;;7.40;1.00;;;;;;5107599;27;20241;-77
2024/02/07 10:25:36;;;;;;;8.25;2.63;;;7.30;1.00;;;;;;5110488;27;20353;-77
2024/02/07 10:28:05;;;;;;;13.05;4.18;;;7.10;1.00;;;;;;5107965;27;20240;-77
2024/02/07 10:30:32;;;;;;;8.35;2.10;;;6.90;1.00;;;;;;5110548;27;20258;-77
2024/02/07 10:32:59;;;;;;;8.73;3.42;;;7.00;1.00;;;;;;5110317;27;20334;-76
2024/02/07 10:35:26;;;;;;;9.43;2.63;;;7.10;1.00;;;;;;5109836;27;20715;-75
2024/02/07 10:37:55;;;;;;;8.40;3.50;;;7.10;1.00;;;;;;5110750;27;20688;-76
2024/02/07 10:40:23;;;;;;;10.68;3.10;;;7.10;1.00;;;;;;5112858;27;20237;-75
2024/02/07 10:43:00;;;;;;;7.40;2.80;;;7.10;1.00;;;;;;5107090;27;20331;-78
2024/02/07 10:45:29;;;;;;;5.13;3.17;;;7.10;1.00;;;;;;5110943;28;21170;-76
2024/02/07 10:47:55;;;;;;;5.80;3.03;;;7.10;1.00;;;;;;5112037;27;20557;-75
2024/02/07 10:50:23;;;;;;;9.52;3.10;;;7.20;1.00;;;;;;5110959;27;20448;-79
2024/02/07 10:52:50;;;;;;;12.93;3.70;;;7.20;1.00;;;;;;5109219;27;20237;-76
2024/02/07 10:55:18;;;;;;;13.30;3.58;;;7.30;1.00;;;;;;5109136;27;20473;-77
2024/02/07 10:57:49;;;;;;;6.93;2.50;;;7.40;1.00;;;;;;5108562;27;20816;-77
2024/02/07 11:00:18;;;;;;;5.43;2.97;;;7.40;1.00;;;;;;5108482;28;21056;-76
2024/02/07 11:02:50;;;;;;;5.47;2.17;;;7.40;1.00;;;;;;5108273;27;20502;-76
2024/02/07 11:05:19;;;;;;;8.75;2.75;;;7.20;1.00;;;;;;5092551;27;20505;-77
2024/02/07 11:07:47;;;;;;;5.55;2.45;;;7.00;1.00;;;;;;5109718;27;20326;-74
2024/02/07 11:10:14;;;;;;;6.45;2.20;;;7.00;1.00;;;;;;5110513;27;20241;-76
2024/02/07 11:12:41;;;;;;;7.72;1.75;;;7.10;1.00;;;;;;5108122;27;20237;-74
2024/02/07 11:15:10;;;;;;;8.10;2.20;;;7.10;1.00;;;;;;5114232;27;20323;-77
2024/02/07 11:17:37;;;;;;;7.40;2.20;;;6.90;1.00;;;;;;5108937;27;20255;-74
2024/02/07 11:20:08;;;;;;;6.43;2.03;;;7.00;1.00;;;;;;5112435;27;20337;-76
2024/02/07 11:22:41;;;;;;;7.07;2.22;;;7.30;1.00;;;;;;5091725;28;20238;-70
2024/02/07 11:25:11;;;;;;;7.10;2.75;;;7.40;1.00;;;;;;5107841;27;20272;-71
2024/02/07 11:27:40;;;;;;;5.55;2.45;;;7.40;1.00;;;;;;5106431;27;20234;-72
2024/02/07 11:30:10;;;;;;;8.30;2.70;;;7.50;1.00;;;;;;5105820;27;20237;-72
2024/02/07 11:32:38;;;;;;;10.27;3.00;;;7.70;1.00;;;;;;5108561;27;20273;-75
2024/02/07 11:35:09;;;;;;;8.97;3.10;;;8.20;1.00;;;;;;5110048;27;20239;-75
2024/02/07 11:37:37;;;;;;;6.47;2.83;;;8.90;1.00;;;;;;5108510;27;20588;-76
2024/02/07 11:40:09;;;;;;;5.80;2.53;;;9.50;1.00;;;;;;5107835;27;20453;-77
2024/02/07 11:42:38;;;;;;;12.93;6.03;;;10.20;1.00;;;;;;5109205;27;20464;-75
2024/02/07 11:45:07;;;;;;;4.77;2.80;;;10.90;1.00;;;;;;5108779;27;20470;-75
2024/02/07 11:47:40;;;;;;;7.20;2.33;;;11.80;1.00;;;;;;5109864;27;20466;-75
2024/02/07 11:50:12;;;;;;;7.37;3.13;;;12.80;1.00;;;;;;5109252;27;20992;-77
2024/02/07 11:52:40;;;;;;;6.80;2.20;;;13.10;1.00;;;;;;5108552;27;20482;-75
2024/02/07 11:55:10;;;;;;;11.17;2.60;;;13.00;1.00;;;;;;5106724;27;20462;-76
2024/02/07 11:57:40;;;;;;;7.07;2.33;;;13.20;1.00;;;;;;5107742;27;20466;-75
2024/02/07 12:00:09;;;;;;;5.33;2.10;;;13.10;1.00;;;;;;5108903;27;20442;-74
2024/02/07 12:02:36;;;;;;;12.50;3.30;;;14.00;1.00;;;;;;5087383;28;20533;-78
2024/02/07 12:05:04;;;;;;;8.37;2.13;;;13.70;1.00;;;;;;5109374;27;21127;-75
2024/02/07 12:07:35;;;;;;;8.07;2.93;;;12.40;1.00;;;;;;5106029;27;20477;-76
2024/02/07 12:10:02;;;;;;;10.53;2.47;;;11.40;1.00;;;;;;5108635;27;21353;-76
2024/02/07 12:12:29;;;;;;;4.73;2.80;;;10.40;1.00;;;;;;5109526;27;20453;-76
2024/02/07 12:14:56;;;;;;;7.30;2.67;;;9.80;1.00;;;;;;5110358;27;20617;-75
2024/02/07 12:17:23;;;;;;;4.63;2.03;;;9.30;1.00;;;;;;5109065;27;21367;-75
2024/02/07 12:19:51;;;;;;;6.77;2.63;;;9.10;1.00;;;;;;5107206;27;20508;-76
2024/02/07 12:22:18;;;;;;;6.63;2.67;;;8.80;1.00;;;;;;5110010;27;20576;-76
2024/02/07 12:24:47;;;;;;;7.17;3.00;;;8.80;1.00;;;;;;5108975;27;21120;-75
2024/02/07 12:27:15;;;;;;;6.47;2.40;;;8.70;1.00;;;;;;5111752;27;20565;-74
2024/02/07 12:29:49;;;;;;;8.47;2.97;;;8.60;1.00;;;;;;5106853;27;20471;-75
2024/02/07 12:32:16;;;;;;;8.67;2.67;;;8.70;1.00;;;;;;5110781;27;20552;-76
2024/02/07 12:34:43;;;;;;;10.83;3.37;;;8.70;1.00;;;;;;5108344;27;20541;-76
2024/02/07 12:37:11;;;;;;;5.40;1.83;;;8.70;1.00;;;;;;5110810;27;20478;-75
2024/02/07 12:39:38;;;;;;;6.93;3.03;;;8.60;1.00;;;;;;5102870;27;20490;-75
2024/02/07 12:42:14;;;;;;;13.60;2.70;;;8.50;1.00;;;;;;5108221;27;20515;-75
2024/02/07 12:44:41;;;;;;;4.43;2.20;;;8.50;1.00;;;;;;5111351;27;20488;-77
2024/02/07 12:47:10;;;;;;;10.10;3.10;;;8.40;1.00;;;;;;5109262;27;20462;-79
2024/02/07 12:49:37;;;;;;;5.40;2.13;;;8.30;1.00;;;;;;5108513;27;20523;-75
2024/02/07 12:52:05;;;;;;;7.87;2.60;;;8.20;1.00;;;;;;5108903;27;20541;-76
2024/02/07 12:54:33;;;;;;;16.43;3.63;;;8.20;1.00;;;;;;5107070;27;21030;-74
2024/02/07 12:57:00;;;;;;;7.57;2.60;;;8.20;1.00;;;;;;5108633;27;20472;-75
2024/02/07 12:59:35;;;;;;;5.60;2.17;;;8.10;1.00;;;;;;5104904;27;20457;-75
2024/02/07 13:02:05;;;;;;;8.50;2.40;;;8.00;1.00;;;;;;5105811;27;20487;-77
2024/02/07 13:04:33;;;;;;;5.40;2.33;;;8.00;1.00;;;;;;5105849;27;21050;-76
2024/02/07 13:07:00;;;;;;;5.87;1.80;;;7.90;1.00;;;;;;5105889;27;20460;-74
2024/02/07 13:09:28;;;;;;;9.53;3.30;;;7.90;1.00;;;;;;5107260;27;20481;-73
2024/02/07 13:11:55;;;;;;;9.87;2.83;;;7.90;1.00;;;;;;5105812;27;20534;-76
2024/02/07 13:14:22;;;;;;;14.37;3.37;;;7.90;1.00;;;;;;5105348;27;20513;-76
2024/02/07 13:16:53;;;;;;;9.07;2.37;;;8.20;1.00;;;;;;5105480;27;20461;-75
2024/02/07 13:19:20;;;;;;;5.73;2.20;;;8.40;1.00;;;;;;5105549;27;20615;-77
2024/02/07 13:21:47;;;;;;;8.67;3.47;;;8.50;1.00;;;;;;5105296;27;20458;-76
2024/02/07 13:24:16;;;;;;;10.33;2.70;;;8.70;1.00;;;;;;5108602;27;21177;-77
2024/02/07 13:26:43;;;;;;;7.70;2.43;;;8.80;1.00;;;;;;5107352;28;20472;-76
2024/02/07 13:29:10;;;;;;;9.00;2.57;;;8.80;1.00;;;;;;5108575;27;21268;-74
2024/02/07 13:31:37;;;;;;;15.30;2.70;;;8.70;1.00;;;;;;5104958;27;21094;-75
2024/02/07 13:34:06;;;;;;;7.57;2.47;;;8.60;1.00;;;;;;5105327;27;20604;-75
2024/02/07 13:36:33;;;;;;;7.03;2.70;;;8.60;1.00;;;;;;5108268;27;20508;-76
2024/02/07 13:38:59;;;;;;;9.53;2.40;;;8.60;1.00;;;;;;5106334;27;20579;-75
2024/02/07 13:41:26;;;;;;;5.60;1.80;;;8.60;1.00;;;;;;5107368;27;20468;-77
2024/02/07 13:43:53;;;;;;;6.88;2.20;;;8.40;1.00;;;;;;5106941;28;20507;-74
2024/02/07 13:46:20;;;;;;;5.33;2.07;;;8.10;1.00;;;;;;5109831;27;20323;-76
2024/02/07 13:48:47;;;;;;;3.90;1.50;;;8.10;1.00;;;;;;5107409;27;20537;-75
2024/02/07 13:51:16;;;;;;;6.93;3.33;;;8.00;1.00;;;;;;5108936;28;20492;-74
2024/02/07 13:53:43;;;;;;;8.43;2.70;;;8.10;1.00;;;;;;5107102;27;20559;-73
2024/02/07 13:56:10;;;;;;;6.07;2.70;;;8.20;1.00;;;;;;5109936;28;20523;-75
2024/02/07 13:58:37;;;;;;;8.23;2.30;;;8.10;1.00;;;;;;5108386;28;20462;-74
2024/02/07 14:01:09;;;;;;;5.43;2.22;;;8.00;1.00;;;;;;5107278;27;20263;-76
2024/02/07 14:03:36;;;;;;;4.40;1.93;;;7.70;1.00;;;;;;5106317;27;20250;-74
2024/02/07 14:06:03;;;;;;;5.33;2.03;;;7.60;1.00;;;;;;5109697;27;20468;-72
2024/02/07 14:08:31;;;;;;;3.57;2.30;;;7.50;1.00;;;;;;5106281;27;21258;-71
2024/02/07 14:10:58;;;;;;;3.20;1.80;;;7.40;1.00;;;;;;5108875;27;20542;-72
2024/02/07 14:13:26;;;;;;;4.20;1.77;;;7.40;1.00;;;;;;5108131;28;20261;-71